Berlin, Michigan
Current Conditions -  °F | °C
As of 1:33 PM on Thursday 30 Oct 2014 (Local Time) from KD95 Reporting Station
Overcast Overcast  
Wind Chill:   Ceiling: 4200
Heat Index:   Visibility: 10mi
Dew Point:   Wind: 5mph
Humidity: 62%   Direction: 250°WSW
Pressure: 30.1"   Gusts: NA
Location:  42.9384°N, 82.9255°W
Report Text: KD95 301733Z AUTO 25004KT 10SM OVC042 08/01 A3010 RMK AO2 T00750007
Loading
Personal Weather Stations






























Interactive Weather Map
Tropical Storm Tracking
New forecast layout! Learn more

10-Day Weather Forecast

Advertisements
Track Severe Weather on mobile